createdAt,value
2022-09-13T00:00:41.540Z,100.00
2022-09-13T00:03:09.909Z,100.00
2022-09-13T00:05:37.787Z,100.00
2022-09-13T00:08:05.580Z,100.00
2022-09-13T00:10:34.894Z,100.00
2022-09-13T00:13:01.774Z,100.00
2022-09-13T00:15:28.467Z,100.00
2022-09-13T00:17:55.030Z,100.00
2022-09-13T00:20:21.580Z,100.00
2022-09-13T00:22:47.985Z,100.00
2022-09-13T00:25:14.444Z,100.00
2022-09-13T00:27:40.975Z,100.00
2022-09-13T00:30:08.737Z,100.00
2022-09-13T00:32:35.854Z,100.00
2022-09-13T00:35:04.231Z,100.00
2022-09-13T00:37:32.424Z,100.00
2022-09-13T00:39:59.384Z,100.00
2022-09-13T00:42:27.935Z,100.00
2022-09-13T00:44:59.968Z,100.00
2022-09-13T00:47:39.137Z,100.00
2022-09-13T00:50:20.725Z,100.00
2022-09-13T00:52:54.896Z,100.00
2022-09-13T00:55:26.977Z,100.00
2022-09-13T00:57:57.624Z,100.00
2022-09-13T01:00:24.308Z,100.00
2022-09-13T01:02:55.722Z,100.00
2022-09-13T01:05:27.680Z,100.00
2022-09-13T01:07:56.410Z,100.00
2022-09-13T01:10:23.647Z,100.00
2022-09-13T01:12:50.088Z,100.00
2022-09-13T01:15:16.763Z,100.00
2022-09-13T01:17:44.110Z,100.00
2022-09-13T01:20:11.529Z,100.00
2022-09-13T01:22:59.955Z,100.00
2022-09-13T01:26:04.189Z,100.00
2022-09-13T01:28:42.847Z,100.00
2022-09-13T01:31:19.518Z,100.00
2022-09-13T01:34:06.849Z,100.00
2022-09-13T01:36:42.363Z,100.00
2022-09-13T01:39:36.927Z,100.00
2022-09-13T01:42:22.347Z,100.00
2022-09-13T01:44:57.734Z,100.00
2022-09-13T01:47:24.144Z,100.00
2022-09-13T01:50:38.110Z,100.00
2022-09-13T01:53:23.448Z,100.00
2022-09-13T01:56:00.981Z,100.00
2022-09-13T01:58:38.296Z,100.00
2022-09-13T02:01:08.806Z,100.00
2022-09-13T02:03:55.571Z,100.00
2022-09-13T02:06:33.868Z,100.00
2022-09-13T02:09:10.170Z,100.00
2022-09-13T02:11:39.929Z,100.00
2022-09-13T02:14:15.692Z,100.00
2022-09-13T02:17:06.888Z,100.00
2022-09-13T02:20:00.219Z,100.00
2022-09-13T02:22:34.669Z,100.00
2022-09-13T02:25:09.169Z,100.00
2022-09-13T02:27:38.715Z,100.00
2022-09-13T02:30:08.836Z,100.00
2022-09-13T02:32:44.233Z,100.00
2022-09-13T02:35:14.524Z,100.00
2022-09-13T02:37:45.087Z,100.00
2022-09-13T02:40:17.848Z,100.00
2022-09-13T02:42:55.531Z,100.00
2022-09-13T02:45:29.545Z,100.00
2022-09-13T02:48:10.274Z,100.00
2022-09-13T02:50:44.063Z,100.00
2022-09-13T02:53:30.335Z,100.00
2022-09-13T02:56:23.926Z,100.00
2022-09-13T02:59:07.496Z,100.00
2022-09-13T03:01:36.490Z,100.00
2022-09-13T03:04:03.475Z,100.00
2022-09-13T03:06:30.082Z,100.00
2022-09-13T03:09:00.545Z,100.00
2022-09-13T03:11:58.101Z,100.00
2022-09-13T03:14:46.417Z,100.00
2022-09-13T03:17:24.370Z,100.00
2022-09-13T03:20:07.923Z,100.00
2022-09-13T03:23:12.620Z,100.00
2022-09-13T03:26:06.775Z,100.00
2022-09-13T03:28:53.586Z,100.00
2022-09-13T03:31:43.353Z,100.00
2022-09-13T03:34:24.029Z,100.00
2022-09-13T03:37:00.414Z,100.00
2022-09-13T03:40:00.225Z,100.00
2022-09-13T03:42:27.129Z,100.00
2022-09-13T03:44:57.127Z,100.00
2022-09-13T03:47:26.189Z,100.00
2022-09-13T03:49:53.532Z,100.00
2022-09-13T03:52:20.379Z,100.00
2022-09-13T03:54:46.816Z,100.00
2022-09-13T03:57:18.294Z,100.00
2022-09-13T03:59:48.460Z,100.00
2022-09-13T04:02:16.283Z,100.00
2022-09-13T04:04:43.928Z,100.00
2022-09-13T04:07:13.948Z,100.00
2022-09-13T04:09:40.387Z,100.00
2022-09-13T04:12:07.034Z,100.00
2022-09-13T04:14:33.520Z,100.00
2022-09-13T04:16:59.922Z,100.00
2022-09-13T04:19:27.110Z,100.00
2022-09-13T04:21:55.813Z,100.00
2022-09-13T04:24:27.314Z,100.00
2022-09-13T04:26:54.817Z,100.00
2022-09-13T04:29:23.003Z,100.00
2022-09-13T04:31:51.986Z,100.00
2022-09-13T04:34:18.764Z,100.00
2022-09-13T04:36:46.135Z,100.00
2022-09-13T04:39:14.080Z,100.00
2022-09-13T04:41:41.731Z,100.00
2022-09-13T04:44:08.252Z,100.00
2022-09-13T04:46:34.739Z,100.00
2022-09-13T04:49:01.179Z,100.00
2022-09-13T04:51:27.694Z,100.00
2022-09-13T04:53:55.971Z,100.00
2022-09-13T04:56:24.208Z,100.00
2022-09-13T04:58:51.565Z,100.00
2022-09-13T05:01:18.089Z,100.00
2022-09-13T05:03:44.760Z,100.00
2022-09-13T05:06:14.431Z,100.00
2022-09-13T05:08:41.218Z,100.00
2022-09-13T05:11:08.471Z,100.00
2022-09-13T05:13:34.989Z,100.00
2022-09-13T05:16:06.877Z,100.00
2022-09-13T05:18:35.750Z,100.00
2022-09-13T05:21:04.773Z,100.00
2022-09-13T05:23:32.117Z,100.00
2022-09-13T05:26:04.384Z,100.00
2022-09-13T05:28:33.907Z,100.00
2022-09-13T05:31:01.552Z,100.00
2022-09-13T05:33:30.933Z,100.00
2022-09-13T05:35:57.434Z,100.00
2022-09-13T05:38:24.362Z,100.00
2022-09-13T05:40:57.989Z,100.00
2022-09-13T05:43:31.527Z,100.00
2022-09-13T05:46:18.289Z,100.00
2022-09-13T05:48:44.935Z,100.00
2022-09-13T05:51:12.542Z,100.00
2022-09-13T05:53:40.298Z,100.00
2022-09-13T05:56:08.938Z,100.00
2022-09-13T05:58:41.526Z,100.00
2022-09-13T06:01:08.381Z,100.00
2022-09-13T06:03:36.183Z,100.00
2022-09-13T06:06:04.188Z,100.00
2022-09-13T06:08:32.678Z,100.00
2022-09-13T06:11:04.383Z,100.00
2022-09-13T06:13:31.386Z,100.00
2022-09-13T06:16:00.122Z,100.00
2022-09-13T06:18:27.133Z,100.00
2022-09-13T06:21:01.744Z,100.00
2022-09-13T06:23:29.591Z,100.00
2022-09-13T06:26:05.681Z,100.00
2022-09-13T06:28:37.173Z,100.00
2022-09-13T06:31:06.102Z,100.00
2022-09-13T06:33:36.678Z,100.00
2022-09-13T06:36:05.382Z,100.00
2022-09-13T06:38:32.188Z,100.00
2022-09-13T06:41:13.779Z,100.00
2022-09-13T06:43:41.817Z,100.00
2022-09-13T06:46:19.476Z,100.00
2022-09-13T06:48:48.736Z,100.00
2022-09-13T06:51:18.081Z,100.00
2022-09-13T06:53:46.663Z,100.00
2022-09-13T06:56:16.307Z,100.00
2022-09-13T06:58:44.515Z,100.00
2022-09-13T07:01:17.107Z,100.00
2022-09-13T07:03:46.708Z,100.00
2022-09-13T07:06:20.291Z,100.00
2022-09-13T07:08:49.677Z,100.00
2022-09-13T07:11:18.416Z,100.00
2022-09-13T07:13:52.388Z,100.00
2022-09-13T07:16:21.909Z,100.00
2022-09-13T07:18:53.296Z,100.00
2022-09-13T07:21:20.603Z,100.00
2022-09-13T07:23:47.125Z,100.00
2022-09-13T07:26:13.711Z,100.00
2022-09-13T07:28:45.701Z,100.00
2022-09-13T07:31:15.316Z,100.00
2022-09-13T07:33:43.046Z,100.00
2022-09-13T07:36:11.706Z,100.00
2022-09-13T07:38:45.217Z,100.00
2022-09-13T07:41:14.248Z,100.00
2022-09-13T07:43:40.935Z,100.00
2022-09-13T07:46:10.118Z,100.00
2022-09-13T07:48:39.478Z,100.00
2022-09-13T07:51:07.380Z,100.00
2022-09-13T07:53:35.192Z,100.00
2022-09-13T07:56:15.014Z,100.00
2022-09-13T07:58:43.501Z,100.00
2022-09-13T08:01:19.624Z,100.00
2022-09-13T08:03:55.175Z,100.00
2022-09-13T08:06:22.856Z,100.00
2022-09-13T08:08:49.748Z,100.00
2022-09-13T08:11:19.327Z,100.00
2022-09-13T08:13:47.441Z,100.00
2022-09-13T08:16:14.952Z,100.00
2022-09-13T08:18:45.973Z,100.00
2022-09-13T08:21:13.387Z,100.00
2022-09-13T08:23:40.162Z,100.00
2022-09-13T08:26:08.118Z,100.00
2022-09-13T08:28:35.662Z,100.00
2022-09-13T08:31:07.758Z,100.00
2022-09-13T08:33:35.126Z,100.00
2022-09-13T08:36:02.352Z,100.00
2022-09-13T08:38:29.355Z,100.00
2022-09-13T08:41:26.445Z,100.00
2022-09-13T08:44:11.467Z,100.00
2022-09-13T08:46:46.544Z,100.00
2022-09-13T08:49:34.667Z,100.00
2022-09-13T08:52:40.636Z,100.00
2022-09-13T08:55:24.039Z,98.21
2022-09-13T08:58:01.979Z,97.57
2022-09-13T09:00:39.607Z,96.34
2022-09-13T09:03:12.760Z,97.25
2022-09-13T09:05:49.818Z,96.21
2022-09-13T09:08:40.328Z,97.62
2022-09-13T09:11:20.744Z,96.06
2022-09-13T09:14:04.982Z,94.08
2022-09-13T09:16:50.580Z,94.39
2022-09-13T09:19:22.810Z,92.10
2022-09-13T09:21:51.668Z,94.30
2022-09-13T09:24:21.851Z,92.38
2022-09-13T09:26:48.354Z,93.21
2022-09-13T09:29:25.160Z,93.17
2022-09-13T09:31:59.098Z,90.71
2022-09-13T09:34:42.729Z,90.93
2022-09-13T09:37:09.244Z,89.39
2022-09-13T09:39:39.226Z,88.01
2022-09-13T09:42:13.364Z,90.03
2022-09-13T09:44:41.093Z,91.14
2022-09-13T09:47:14.408Z,91.09
2022-09-13T09:50:09.372Z,88.52
2022-09-13T09:52:44.834Z,89.90
2022-09-13T09:55:21.466Z,85.57
2022-09-13T09:57:55.848Z,86.67
2022-09-13T10:00:26.021Z,87.25
2022-09-13T10:02:57.510Z,87.65
2022-09-13T10:05:26.204Z,86.16
2022-09-13T10:07:55.236Z,85.90
2022-09-13T10:10:36.675Z,85.35
2022-09-13T10:13:08.180Z,85.73
2022-09-13T10:15:35.709Z,83.60
2022-09-13T10:18:42.805Z,80.27
2022-09-13T10:21:18.335Z,81.96
2022-09-13T10:23:50.820Z,81.56
2022-09-13T10:26:21.140Z,82.73
2022-09-13T10:29:00.107Z,80.19
2022-09-13T10:31:34.744Z,80.36
2022-09-13T10:34:13.747Z,77.72
2022-09-13T10:36:57.756Z,79.60
2022-09-13T10:39:25.733Z,79.75
2022-09-13T10:42:08.221Z,78.14
2022-09-13T10:44:47.453Z,78.86
2022-09-13T10:47:23.400Z,74.68
2022-09-13T10:49:54.849Z,76.24
2022-09-13T10:52:47.440Z,75.46
2022-09-13T10:55:19.939Z,74.85
2022-09-13T10:57:51.902Z,75.39
2022-09-13T11:00:25.628Z,74.89
2022-09-13T11:03:13.544Z,73.94
2022-09-13T11:05:45.993Z,75.33
2022-09-13T11:08:28.622Z,73.72
2022-09-13T11:11:32.887Z,74.20
2022-09-13T11:14:12.420Z,75.45
2022-09-13T11:16:45.981Z,77.15
2022-09-13T11:19:27.751Z,77.58
2022-09-13T11:22:13.184Z,73.26
2022-09-13T11:25:17.315Z,74.39
2022-09-13T11:28:05.433Z,72.41
2022-09-13T11:30:43.421Z,71.96
2022-09-13T11:33:19.763Z,72.55
2022-09-13T11:36:09.734Z,70.43
2022-09-13T11:38:56.350Z,71.02
2022-09-13T11:41:42.360Z,68.82
2022-09-13T11:44:41.196Z,70.37
2022-09-13T11:47:47.075Z,68.56
2022-09-13T11:51:01.243Z,68.68
2022-09-13T11:53:43.502Z,68.68
2022-09-13T11:56:16.551Z,68.02
2022-09-13T11:58:50.131Z,66.96
2022-09-13T12:01:43.145Z,70.49
2022-09-13T12:04:25.318Z,69.89
2022-09-13T12:07:00.182Z,69.95
2022-09-13T12:09:33.190Z,70.35
2022-09-13T12:12:05.701Z,70.31
2022-09-13T12:14:43.718Z,68.82
2022-09-13T12:17:25.166Z,68.27
2022-09-13T12:19:54.936Z,64.45
2022-09-13T12:22:28.895Z,67.84
2022-09-13T12:25:00.328Z,69.00
2022-09-13T12:27:30.088Z,69.50
2022-09-13T12:30:05.953Z,67.84
2022-09-13T12:32:32.663Z,67.60
2022-09-13T12:35:16.054Z,67.77
2022-09-13T12:38:07.219Z,66.49
2022-09-13T12:40:50.849Z,67.03
2022-09-13T12:43:26.618Z,65.60
2022-09-13T12:46:07.798Z,67.04
2022-09-13T12:48:46.346Z,65.27
2022-09-13T12:51:43.497Z,65.45
2022-09-13T12:54:27.425Z,66.87
2022-09-13T12:57:17.954Z,65.96
2022-09-13T13:00:04.462Z,64.81
2022-09-13T13:02:54.201Z,60.98
2022-09-13T13:05:30.822Z,62.97
2022-09-13T13:08:02.237Z,62.92
2022-09-13T13:10:33.095Z,62.98
2022-09-13T13:13:15.747Z,58.43
2022-09-13T13:15:46.605Z,54.88
2022-09-13T13:18:28.152Z,56.51
2022-09-13T13:20:54.604Z,56.51
2022-09-13T13:23:21.033Z,51.93
2022-09-13T13:26:09.345Z,47.88
2022-09-13T13:28:51.978Z,48.09
2022-09-13T13:31:24.826Z,45.22
2022-09-13T13:33:58.881Z,45.23
2022-09-13T13:36:33.745Z,46.03
2022-09-13T13:39:01.972Z,44.21
2022-09-13T13:41:38.265Z,44.81
2022-09-13T13:44:20.384Z,46.16
2022-09-13T13:46:51.556Z,49.05
2022-09-13T13:49:30.221Z,47.48
2022-09-13T13:52:08.478Z,48.58
2022-09-13T13:54:50.447Z,49.03
2022-09-13T13:57:41.404Z,50.67
2022-09-13T14:00:22.426Z,51.65
2022-09-13T14:02:54.457Z,53.74
2022-09-13T14:05:30.310Z,54.58
2022-09-13T14:08:02.679Z,54.46
2022-09-13T14:10:47.856Z,53.88
2022-09-13T14:13:32.823Z,51.90
2022-09-13T14:16:13.915Z,51.68
2022-09-13T14:18:55.415Z,52.42
2022-09-13T14:21:26.712Z,51.70
2022-09-13T14:24:09.515Z,50.92
2022-09-13T14:26:36.745Z,51.26
2022-09-13T14:29:07.454Z,52.67
2022-09-13T14:31:33.970Z,53.33
2022-09-13T14:34:00.528Z,55.19
2022-09-13T14:36:27.635Z,57.75
2022-09-13T14:38:59.556Z,59.92
2022-09-13T14:41:32.808Z,60.54
2022-09-13T14:44:28.376Z,61.83
2022-09-13T14:47:03.351Z,62.07
2022-09-13T14:49:36.151Z,63.12
2022-09-13T14:52:09.008Z,63.25
2022-09-13T14:54:35.420Z,63.70
2022-09-13T14:57:05.153Z,65.62
2022-09-13T14:59:36.212Z,65.15
2022-09-13T15:02:13.528Z,66.29
2022-09-13T15:04:45.211Z,67.57
2022-09-13T15:07:39.108Z,69.34
2022-09-13T15:10:29.903Z,71.06
2022-09-13T15:12:56.373Z,70.36
2022-09-13T15:15:26.103Z,70.05
2022-09-13T15:18:16.665Z,72.56
2022-09-13T15:21:16.825Z,72.21
2022-09-13T15:23:50.454Z,72.67
2022-09-13T15:26:27.941Z,71.65
2022-09-13T15:29:04.148Z,71.12
2022-09-13T15:31:32.945Z,70.92
2022-09-13T15:34:17.777Z,73.21
2022-09-13T15:37:02.807Z,72.01
2022-09-13T15:39:29.355Z,72.94
2022-09-13T15:42:00.635Z,73.01
2022-09-13T15:44:29.786Z,74.65
2022-09-13T15:47:01.934Z,74.52
2022-09-13T15:49:29.306Z,75.26
2022-09-13T15:52:02.061Z,74.92
2022-09-13T15:54:41.304Z,76.22
2022-09-13T15:57:13.610Z,75.41
2022-09-13T15:59:40.213Z,76.96
2022-09-13T16:02:21.478Z,78.33
2022-09-13T16:04:48.514Z,79.07
2022-09-13T16:07:15.976Z,78.21
2022-09-13T16:09:42.708Z,80.64
2022-09-13T16:12:09.582Z,80.16
2022-09-13T16:14:36.041Z,80.56
2022-09-13T16:17:06.837Z,82.00
2022-09-13T16:19:33.757Z,82.79
2022-09-13T16:22:00.190Z,81.00
2022-09-13T16:24:27.178Z,82.64
2022-09-13T16:26:54.103Z,84.00
2022-09-13T16:29:20.559Z,86.30
2022-09-13T16:31:47.152Z,86.43
2022-09-13T16:34:13.596Z,86.28
2022-09-13T16:36:40.100Z,88.44
2022-09-13T16:39:06.537Z,87.66
2022-09-13T16:41:33.019Z,87.56
2022-09-13T16:43:59.565Z,87.66
2022-09-13T16:46:26.207Z,88.62
2022-09-13T16:48:56.287Z,89.46
2022-09-13T16:51:23.701Z,89.44
2022-09-13T16:53:51.948Z,90.44
2022-09-13T16:56:21.501Z,90.58
2022-09-13T16:58:48.744Z,90.77
2022-09-13T17:01:18.057Z,90.69
2022-09-13T17:03:44.696Z,90.73
2022-09-13T17:06:14.254Z,91.27
2022-09-13T17:08:42.889Z,91.95
2022-09-13T17:11:12.208Z,92.09
2022-09-13T17:13:40.014Z,93.01
2022-09-13T17:16:18.533Z,94.60
2022-09-13T17:18:45.197Z,93.16
2022-09-13T17:21:11.661Z,94.55
2022-09-13T17:23:38.220Z,94.39
2022-09-13T17:26:04.661Z,95.91
2022-09-13T17:28:31.215Z,97.24
2022-09-13T17:31:01.805Z,95.86
2022-09-13T17:33:29.071Z,96.66
2022-09-13T17:36:00.550Z,98.26
2022-09-13T17:38:27.367Z,97.77
2022-09-13T17:41:01.902Z,99.98
2022-09-13T17:43:28.714Z,99.12
2022-09-13T17:45:55.486Z,98.93
2022-09-13T17:48:21.998Z,98.37
2022-09-13T17:50:48.438Z,98.48
2022-09-13T17:53:14.914Z,98.02
2022-09-13T17:55:49.213Z,100.00
2022-09-13T17:58:16.424Z,100.00
2022-09-13T18:00:43.765Z,100.00
2022-09-13T18:03:10.609Z,99.68
2022-09-13T18:05:37.311Z,100.00
2022-09-13T18:08:03.838Z,100.00
2022-09-13T18:10:57.954Z,100.00
2022-09-13T18:13:17.475Z,100.00
2022-09-13T18:15:43.966Z,100.00
2022-09-13T18:18:10.492Z,100.00
2022-09-13T18:20:40.503Z,99.62
2022-09-13T18:23:08.051Z,100.00
2022-09-13T18:25:34.489Z,100.00
2022-09-13T18:28:01.045Z,100.00
2022-09-13T18:30:27.451Z,100.00
2022-09-13T18:32:54.195Z,100.00
2022-09-13T18:35:20.660Z,100.00
2022-09-13T18:37:47.091Z,100.00
2022-09-13T18:40:15.252Z,100.00
2022-09-13T18:42:45.200Z,100.00
2022-09-13T18:45:11.923Z,100.00
2022-09-13T18:47:38.723Z,100.00
2022-09-13T18:50:08.164Z,100.00
2022-09-13T18:52:39.026Z,100.00
2022-09-13T18:55:05.852Z,100.00
2022-09-13T18:57:32.327Z,100.00
2022-09-13T18:59:59.450Z,100.00
2022-09-13T19:02:25.956Z,100.00
2022-09-13T19:04:52.511Z,100.00
2022-09-13T19:07:21.206Z,100.00
2022-09-13T19:09:47.637Z,100.00
2022-09-13T19:12:14.044Z,100.00
2022-09-13T19:14:40.508Z,100.00
2022-09-13T19:17:06.983Z,100.00
2022-09-13T19:19:35.448Z,100.00
2022-09-13T19:22:01.880Z,100.00
2022-09-13T19:24:28.389Z,100.00
2022-09-13T19:26:54.844Z,99.43
2022-09-13T19:29:23.026Z,97.75
2022-09-13T19:31:52.084Z,96.98
2022-09-13T19:34:20.185Z,96.37
2022-09-13T19:36:48.885Z,94.85
2022-09-13T19:39:15.344Z,93.96
2022-09-13T19:41:41.872Z,92.39
2022-09-13T19:44:10.676Z,92.00
2022-09-13T19:46:40.175Z,89.63
2022-09-13T19:49:11.745Z,88.14
2022-09-13T19:51:39.464Z,87.93
2022-09-13T19:54:07.615Z,86.10
2022-09-13T19:56:37.874Z,84.92
2022-09-13T19:59:04.755Z,84.61
2022-09-13T20:01:34.230Z,84.23
2022-09-13T20:04:03.568Z,83.63
2022-09-13T20:06:35.842Z,83.19
2022-09-13T20:09:04.097Z,83.40
2022-09-13T20:11:31.444Z,82.56
2022-09-13T20:13:59.423Z,81.98
2022-09-13T20:16:32.483Z,82.78
2022-09-13T20:18:59.005Z,81.66
2022-09-13T20:21:30.892Z,81.84
2022-09-13T20:24:00.624Z,81.46
2022-09-13T20:26:27.869Z,80.99
2022-09-13T20:29:00.402Z,80.04
2022-09-13T20:31:28.213Z,80.73
2022-09-13T20:34:00.000Z,80.22
2022-09-13T20:36:30.098Z,80.25
2022-09-13T20:39:02.401Z,80.88
2022-09-13T20:41:30.374Z,80.57
2022-09-13T20:43:59.024Z,80.07
2022-09-13T20:46:25.911Z,79.50
2022-09-13T20:48:52.428Z,79.24
2022-09-13T20:51:25.219Z,78.46
2022-09-13T20:53:56.329Z,79.21
2022-09-13T20:56:23.574Z,79.53
2022-09-13T20:58:57.349Z,79.70
2022-09-13T21:01:24.654Z,80.07
2022-09-13T21:03:53.392Z,79.33
2022-09-13T21:06:21.701Z,78.85
2022-09-13T21:08:52.403Z,80.28
2022-09-13T21:11:24.669Z,78.75
2022-09-13T21:13:53.399Z,79.13
2022-09-13T21:16:21.219Z,78.58
2022-09-13T21:18:47.929Z,79.48
2022-09-13T21:21:20.078Z,78.60
2022-09-13T21:23:47.767Z,78.84
2022-09-13T21:26:20.157Z,78.77
2022-09-13T21:28:47.304Z,78.81
2022-09-13T21:31:21.478Z,79.68
2022-09-13T21:33:48.749Z,79.18
2022-09-13T21:36:15.295Z,79.02
2022-09-13T21:38:41.710Z,79.13
2022-09-13T21:41:12.697Z,79.40
2022-09-13T21:43:39.681Z,80.83
2022-09-13T21:46:15.002Z,81.15
2022-09-13T21:48:45.089Z,80.18
2022-09-13T21:51:20.829Z,80.46
2022-09-13T21:53:48.383Z,80.75
2022-09-13T21:56:18.215Z,80.64
2022-09-13T21:58:52.991Z,80.53
2022-09-13T22:01:22.657Z,80.50
2022-09-13T22:03:51.666Z,82.42
2022-09-13T22:06:19.819Z,81.12
2022-09-13T22:08:48.790Z,80.76
2022-09-13T22:11:17.926Z,80.95
2022-09-13T22:13:45.868Z,81.27
2022-09-13T22:16:21.650Z,81.54
2022-09-13T22:18:56.391Z,81.67
2022-09-13T22:21:25.906Z,81.70
2022-09-13T22:23:52.470Z,81.65
2022-09-13T22:26:24.290Z,82.06
2022-09-13T22:28:52.442Z,81.18
2022-09-13T22:31:21.616Z,82.23
2022-09-13T22:33:48.857Z,82.77
2022-09-13T22:36:16.355Z,82.11
2022-09-13T22:38:44.835Z,82.97
2022-09-13T22:41:14.494Z,82.84
2022-09-13T22:43:41.618Z,83.28
2022-09-13T22:46:12.466Z,84.63
2022-09-13T22:48:40.108Z,83.34
2022-09-13T22:51:08.175Z,84.26
2022-09-13T22:53:36.932Z,83.77
2022-09-13T22:56:18.658Z,84.73
2022-09-13T22:58:45.892Z,85.11
2022-09-13T23:01:18.795Z,85.41
2022-09-13T23:03:46.725Z,85.94
2022-09-13T23:06:15.615Z,86.72
2022-09-13T23:08:42.331Z,86.58
2022-09-13T23:11:19.909Z,87.20
2022-09-13T23:13:48.728Z,88.00
2022-09-13T23:16:18.723Z,87.43
2022-09-13T23:18:45.842Z,87.09
2022-09-13T23:21:12.511Z,87.38
2022-09-13T23:23:39.511Z,87.94
2022-09-13T23:26:12.418Z,88.79
2022-09-13T23:28:39.393Z,89.13
2022-09-13T23:31:14.706Z,91.88
2022-09-13T23:33:43.331Z,93.59
2022-09-13T23:36:12.112Z,93.91
2022-09-13T23:38:40.435Z,94.93
2022-09-13T23:41:07.586Z,94.95
2022-09-13T23:43:34.250Z,95.81
2022-09-13T23:46:00.697Z,96.97
2022-09-13T23:48:27.383Z,96.33
2022-09-13T23:51:06.036Z,95.26
2022-09-13T23:53:33.639Z,96.90
2022-09-13T23:56:00.165Z,95.30
2022-09-13T23:58:26.741Z,96.31
